LTFH Airport Information

Runway Information
Runway 13 Length 9843 ft width 148 ft
Elevation 10 ft Threshold 0 ft Heading 134
Runway 31 Length 9843 ft Width 148 ft
Elevation 17 ft Threshold 0 ft Heading 314
Airport Frequencies
Type APP Name APP Frequency 118.175 MHZ
Type ATIS Name ATIS Frequency 129.35 MHZ
Type GND Name GND Frequency 121.7 MHZ
Type TWR Name TWR Frequency 118.35 MHZ
Airport Navaids
Type NDB Name Carsamba Frequency 325 KHZ
Type VOR-DME Name Carsamba Frequency 112800 KHZ
Airport Weather Information & NOTAM
ADDS - METARS form results

(2143 UTC 10 December 2019)
Data provider http://aviationweather.gov/metar/data/
 
METAR text: LTFH 102050Z 15005KT 6000 NSC 02/01 Q1017 NOSIG
Conditions at: LTFH (CARSAMBA , TR) observed 2050 UTC 10 December 2019
Temperature: 2.0°C (36°F)
Dewpoint: 1.0°C (34°F) [RH = 93%]
Pressure (altimeter): 30.03 inches Hg (1017.0 mb)
Winds: from the SSE (150 degrees) at 6 MPH (5 knots; 2.6 m/s)
Visibility: 4 miles ( 6 km)
Ceiling: at least 12,000 feet AGL
Clouds: sky clear below 12,000 feet AGL
Weather: no significant weather observed at this time

Forecast for: LTFH (CARSAMBA , TR)
Text: TAF LTFH 101940Z 1021/1106 VRB02KT 6000 NSC
Forecast period: 2100 UTC 10 December 2019 to 0600 UTC 11 December 2019
Forecast type: FROM: standard forecast or significant change
Winds: variable direction winds at 2 MPH (2 knots; 1.0 m/s)
Visibility: 4 miles (6 km)
Ceiling: unknown
Clouds: missing
Weather: no significant weather forecast for this period